createdAt,value
2022-12-08T00:02:32.405Z,4.53
2022-12-08T00:05:24.108Z,6.16
2022-12-08T00:08:14.767Z,7.81
2022-12-08T00:10:51.605Z,7.65
2022-12-08T00:13:25.397Z,6.45
2022-12-08T00:16:03.109Z,5.44
2022-12-08T00:18:39.050Z,4.69
2022-12-08T00:21:12.175Z,4.29
2022-12-08T00:23:45.420Z,5.66
2022-12-08T00:26:18.259Z,6.97
2022-12-08T00:28:51.619Z,6.37
2022-12-08T00:31:24.610Z,5.32
2022-12-08T00:33:58.937Z,4.50
2022-12-08T00:36:32.365Z,3.92
2022-12-08T00:39:05.870Z,4.77
2022-12-08T00:41:56.561Z,6.49
2022-12-08T00:44:30.663Z,7.59
2022-12-08T00:47:03.866Z,7.24
2022-12-08T00:49:37.617Z,5.97
2022-12-08T00:52:12.955Z,4.87
2022-12-08T00:54:48.129Z,4.10
2022-12-08T00:57:23.364Z,3.49
2022-12-08T00:59:57.620Z,2.99
2022-12-08T01:02:33.584Z,2.59
2022-12-08T01:05:08.005Z,2.75
2022-12-08T01:07:40.961Z,4.53
2022-12-08T01:10:15.208Z,5.78
2022-12-08T01:12:49.238Z,6.18
2022-12-08T01:15:22.401Z,5.36
2022-12-08T01:17:55.921Z,4.41
2022-12-08T01:20:29.828Z,3.70
2022-12-08T01:23:03.005Z,3.94
2022-12-08T01:25:39.126Z,5.30
2022-12-08T01:28:12.351Z,5.73
2022-12-08T01:30:46.242Z,5.05
2022-12-08T01:33:19.271Z,4.13
2022-12-08T01:35:52.468Z,3.44
2022-12-08T01:38:26.305Z,3.32
2022-12-08T01:40:59.205Z,4.41
2022-12-08T01:43:58.990Z,5.34
2022-12-08T01:46:34.385Z,5.96
2022-12-08T01:49:12.759Z,6.25
2022-12-08T01:51:56.063Z,5.71
2022-12-08T01:54:34.446Z,4.72
2022-12-08T01:57:12.629Z,3.96
2022-12-08T01:59:53.126Z,3.41
2022-12-08T02:02:28.208Z,3.55
2022-12-08T02:05:01.217Z,4.92
2022-12-08T02:07:34.874Z,5.87
2022-12-08T02:10:15.791Z,6.28
2022-12-08T02:12:53.555Z,6.18
2022-12-08T02:15:39.469Z,5.26
2022-12-08T02:18:40.589Z,4.38
2022-12-08T02:21:19.789Z,3.73
2022-12-08T02:24:07.774Z,4.66
2022-12-08T02:27:25.355Z,5.55
2022-12-08T02:30:27.846Z,5.13
2022-12-08T02:33:50.347Z,4.10
2022-12-08T02:36:33.261Z,3.63
2022-12-08T02:39:22.711Z,4.63
2022-12-08T02:42:06.361Z,5.60
2022-12-08T02:44:47.194Z,5.42
2022-12-08T02:47:26.147Z,4.43
2022-12-08T02:50:00.946Z,3.69
2022-12-08T02:52:51.738Z,4.06
2022-12-08T02:55:34.477Z,5.12
2022-12-08T02:58:43.539Z,5.48
2022-12-08T03:01:46.000Z,4.86
2022-12-08T03:04:34.220Z,3.80
2022-12-08T03:07:18.154Z,3.22
2022-12-08T03:10:00.872Z,4.40
2022-12-08T03:12:41.302Z,5.97
2022-12-08T03:15:19.972Z,6.33
2022-12-08T03:18:00.977Z,5.27
2022-12-08T03:20:38.192Z,4.14
2022-12-08T03:23:16.844Z,3.36
2022-12-08T03:25:59.594Z,2.80
2022-12-08T03:28:33.314Z,3.28
2022-12-08T03:31:13.711Z,4.23
2022-12-08T03:33:53.907Z,4.77
2022-12-08T03:36:28.269Z,5.36
2022-12-08T03:39:01.500Z,4.87
2022-12-08T03:41:34.437Z,3.88
2022-12-08T03:44:07.933Z,3.73
2022-12-08T03:46:41.701Z,4.42
2022-12-08T03:49:14.926Z,4.55
2022-12-08T03:51:47.971Z,5.02
2022-12-08T03:54:20.702Z,5.97
2022-12-08T03:56:53.781Z,5.90
2022-12-08T03:59:26.740Z,4.82
2022-12-08T04:01:59.993Z,3.88
2022-12-08T04:04:33.192Z,3.23
2022-12-08T04:07:06.169Z,3.71
2022-12-08T04:09:41.906Z,4.93
2022-12-08T04:12:16.634Z,5.48
2022-12-08T04:14:50.320Z,4.69
2022-12-08T04:17:23.249Z,3.79
2022-12-08T04:19:57.840Z,3.28
2022-12-08T04:22:30.913Z,4.25
2022-12-08T04:25:04.860Z,5.16
2022-12-08T04:27:37.790Z,5.48
2022-12-08T04:30:13.947Z,4.80
2022-12-08T04:32:47.620Z,3.99
2022-12-08T04:35:20.945Z,4.32
2022-12-08T04:37:54.117Z,5.70
2022-12-08T04:40:27.720Z,5.97
2022-12-08T04:43:00.716Z,5.05
2022-12-08T04:45:41.209Z,4.20
2022-12-08T04:48:15.787Z,4.83
2022-12-08T04:50:49.321Z,5.66
2022-12-08T04:53:22.727Z,5.78
2022-12-08T04:55:57.517Z,4.79
2022-12-08T04:58:30.950Z,3.88
2022-12-08T05:01:03.980Z,4.18
2022-12-08T05:03:37.909Z,5.38
2022-12-08T05:06:14.184Z,5.98
2022-12-08T05:08:48.738Z,5.15
2022-12-08T05:11:21.675Z,4.12
2022-12-08T05:13:55.012Z,3.38
2022-12-08T05:16:28.091Z,2.85
2022-12-08T05:19:01.121Z,3.17
2022-12-08T05:21:34.283Z,4.48
2022-12-08T05:24:08.209Z,5.39
2022-12-08T05:26:41.371Z,5.68
2022-12-08T05:29:14.135Z,5.62
2022-12-08T05:31:47.422Z,4.77
2022-12-08T05:34:20.617Z,3.91
2022-12-08T05:36:53.450Z,3.27
2022-12-08T05:39:26.688Z,3.13
2022-12-08T05:42:00.607Z,4.21
2022-12-08T05:44:35.391Z,5.35
2022-12-08T05:47:08.625Z,6.19
2022-12-08T05:49:42.170Z,6.90
2022-12-08T05:52:17.173Z,6.91
2022-12-08T05:54:50.419Z,5.86
2022-12-08T05:57:23.242Z,4.84
2022-12-08T06:00:00.026Z,4.09
2022-12-08T06:02:33.383Z,3.53
2022-12-08T06:05:08.750Z,3.15
2022-12-08T06:07:41.965Z,2.84
2022-12-08T06:10:16.501Z,2.59
2022-12-08T06:12:49.596Z,2.39
2022-12-08T06:15:23.148Z,2.59
2022-12-08T06:17:56.096Z,4.32
2022-12-08T06:20:28.996Z,5.80
2022-12-08T06:23:03.746Z,6.43
2022-12-08T06:25:37.401Z,7.17
2022-12-08T06:28:11.080Z,6.59
2022-12-08T06:30:45.158Z,5.54
2022-12-08T06:33:18.392Z,4.77
2022-12-08T06:35:51.277Z,4.22
2022-12-08T06:38:24.665Z,3.80
2022-12-08T06:41:01.322Z,3.64
2022-12-08T06:43:34.546Z,5.03
2022-12-08T06:46:13.156Z,6.47
2022-12-08T06:48:46.269Z,7.28
2022-12-08T06:51:23.712Z,7.37
2022-12-08T06:53:58.992Z,6.35
2022-12-08T06:56:32.455Z,5.36
2022-12-08T06:59:06.408Z,4.64
2022-12-08T07:01:40.628Z,4.11
2022-12-08T07:04:15.713Z,3.68
2022-12-08T07:06:49.995Z,4.09
2022-12-08T07:09:23.402Z,5.44
2022-12-08T07:11:58.800Z,6.63
2022-12-08T07:14:32.502Z,7.38
2022-12-08T07:17:06.112Z,8.17
2022-12-08T07:19:40.531Z,8.37
2022-12-08T07:22:13.783Z,7.32
2022-12-08T07:24:48.046Z,6.20
2022-12-08T07:27:22.519Z,5.34
2022-12-08T07:29:56.498Z,4.65
2022-12-08T07:32:31.135Z,4.12
2022-12-08T07:35:11.755Z,3.68
2022-12-08T07:37:46.059Z,3.28
2022-12-08T07:40:20.366Z,2.95
2022-12-08T07:42:54.222Z,3.00
2022-12-08T07:45:31.468Z,4.43
2022-12-08T07:48:05.410Z,5.39
2022-12-08T07:50:41.877Z,5.73
2022-12-08T07:53:16.539Z,6.01
2022-12-08T07:55:50.232Z,6.51
2022-12-08T07:58:24.036Z,7.33
2022-12-08T08:00:57.520Z,7.82
2022-12-08T08:03:31.582Z,7.74
2022-12-08T08:06:09.083Z,6.84
2022-12-08T08:08:42.444Z,5.91
2022-12-08T08:11:20.929Z,5.24
2022-12-08T08:13:55.844Z,4.70
2022-12-08T08:16:34.941Z,4.28
2022-12-08T08:19:11.073Z,3.94
2022-12-08T08:21:46.474Z,3.67
2022-12-08T08:24:22.357Z,3.41
2022-12-08T08:26:56.108Z,3.18
2022-12-08T08:29:29.162Z,3.11
2022-12-08T08:32:03.683Z,4.10
2022-12-08T08:34:37.267Z,5.18
2022-12-08T08:37:11.497Z,5.84
2022-12-08T08:39:45.679Z,6.18
2022-12-08T08:42:18.597Z,6.61
2022-12-08T08:44:52.369Z,6.65
2022-12-08T08:47:26.222Z,5.95
2022-12-08T08:49:59.553Z,5.28
2022-12-08T08:52:33.133Z,4.82
2022-12-08T08:55:08.024Z,4.51
2022-12-08T08:57:41.011Z,5.03
2022-12-08T09:00:18.608Z,6.51
2022-12-08T09:02:53.619Z,7.62
2022-12-08T09:05:27.063Z,7.97
2022-12-08T09:08:00.964Z,7.30
2022-12-08T09:10:33.961Z,6.55
2022-12-08T09:13:08.435Z,6.03
2022-12-08T09:15:42.128Z,5.96
2022-12-08T09:18:14.974Z,7.18
2022-12-08T09:20:50.758Z,7.96
2022-12-08T09:23:24.920Z,7.93
2022-12-08T09:25:59.059Z,7.20
2022-12-08T09:28:32.301Z,6.56
2022-12-08T09:31:06.556Z,6.09
2022-12-08T09:33:41.369Z,5.76
2022-12-08T09:36:16.532Z,6.24
2022-12-08T09:38:51.382Z,7.78
2022-12-08T09:41:39.266Z,9.12
2022-12-08T09:44:45.672Z,9.70
2022-12-08T09:47:33.752Z,8.68
2022-12-08T09:50:18.545Z,7.85
2022-12-08T09:53:02.752Z,7.33
2022-12-08T09:55:46.513Z,6.98
2022-12-08T09:58:34.532Z,6.98
2022-12-08T10:01:09.979Z,8.87
2022-12-08T10:03:44.105Z,10.48
2022-12-08T10:06:29.554Z,10.94
2022-12-08T10:09:22.715Z,10.05
2022-12-08T10:12:07.065Z,9.01
2022-12-08T10:14:48.706Z,8.27
2022-12-08T10:17:29.229Z,7.74
2022-12-08T10:20:13.936Z,7.35
2022-12-08T10:22:52.195Z,7.30
2022-12-08T10:25:37.426Z,8.77
2022-12-08T10:28:13.453Z,9.80
2022-12-08T10:30:47.983Z,9.95
2022-12-08T10:33:25.699Z,9.25
2022-12-08T10:36:03.594Z,8.51
2022-12-08T10:38:40.025Z,7.99
2022-12-08T10:41:19.827Z,7.64
2022-12-08T10:44:02.926Z,8.01
2022-12-08T10:46:41.469Z,9.70
2022-12-08T10:49:32.636Z,10.52
2022-12-08T10:52:26.147Z,10.08
2022-12-08T10:55:03.738Z,9.21
2022-12-08T10:57:41.765Z,8.64
2022-12-08T11:00:29.661Z,8.24
2022-12-08T11:03:06.762Z,9.30
2022-12-08T11:05:42.873Z,10.64
2022-12-08T11:08:19.391Z,10.98
2022-12-08T11:10:55.139Z,10.16
2022-12-08T11:13:30.765Z,9.26
2022-12-08T11:16:07.583Z,8.61
2022-12-08T11:18:48.585Z,8.09
2022-12-08T11:21:33.325Z,7.63
2022-12-08T11:24:32.273Z,7.52
2022-12-08T11:27:10.229Z,8.63
2022-12-08T11:29:43.970Z,9.13
2022-12-08T11:32:19.153Z,9.85
2022-12-08T11:34:58.163Z,9.64
2022-12-08T11:37:39.623Z,8.87
2022-12-08T11:40:27.242Z,8.32
2022-12-08T11:43:14.233Z,8.25
2022-12-08T11:45:50.747Z,9.65
2022-12-08T11:48:35.087Z,10.36
2022-12-08T11:51:18.935Z,9.48
2022-12-08T11:54:08.343Z,8.47
2022-12-08T11:56:47.523Z,7.73
2022-12-08T11:59:31.468Z,7.16
2022-12-08T12:02:13.832Z,6.80
2022-12-08T12:04:54.222Z,7.80
2022-12-08T12:08:11.673Z,9.56
2022-12-08T12:11:07.926Z,10.01
2022-12-08T12:14:02.653Z,8.82
2022-12-08T12:17:05.406Z,7.81
2022-12-08T12:19:42.953Z,7.04
2022-12-08T12:22:25.058Z,6.52
2022-12-08T12:24:59.416Z,6.46
2022-12-08T12:27:46.125Z,8.03
2022-12-08T12:30:32.390Z,9.20
2022-12-08T12:33:13.962Z,8.43
2022-12-08T12:35:50.230Z,7.51
2022-12-08T12:38:51.827Z,6.92
2022-12-08T12:41:34.818Z,6.76
2022-12-08T12:44:44.820Z,8.43
2022-12-08T12:47:55.907Z,9.67
2022-12-08T12:50:50.834Z,8.66
2022-12-08T12:53:53.918Z,7.67
2022-12-08T12:56:56.886Z,6.93
2022-12-08T12:59:54.717Z,6.46
2022-12-08T13:02:40.292Z,7.57
2022-12-08T13:05:21.142Z,8.90
2022-12-08T13:08:02.153Z,9.21
2022-12-08T13:10:39.390Z,8.39
2022-12-08T13:13:22.223Z,7.58
2022-12-08T13:16:12.731Z,6.94
2022-12-08T13:18:59.431Z,6.74
2022-12-08T13:21:39.794Z,8.03
2022-12-08T13:24:32.586Z,9.02
2022-12-08T13:27:53.753Z,8.75
2022-12-08T13:30:49.344Z,7.54
2022-12-08T13:33:30.089Z,6.73
2022-12-08T13:36:33.543Z,6.54
2022-12-08T13:39:08.920Z,7.27
2022-12-08T13:41:50.160Z,7.97
2022-12-08T13:47:37.343Z,7.01
2022-12-08T13:51:10.583Z,6.18
2022-12-08T13:59:34.463Z,7.67
2022-12-08T14:02:24.280Z,7.54
2022-12-08T14:08:00.371Z,5.54
2022-12-08T14:10:35.440Z,5.28
2022-12-08T14:13:15.407Z,6.08
2022-12-08T14:15:49.979Z,7.31
2022-12-08T14:18:34.047Z,8.40
2022-12-08T14:21:23.102Z,7.94
2022-12-08T14:23:57.661Z,6.68
2022-12-08T14:26:36.889Z,5.81
2022-12-08T14:29:20.866Z,5.14
2022-12-08T14:31:56.154Z,5.19
2022-12-08T14:34:39.658Z,5.78
2022-12-08T14:37:18.138Z,6.10
2022-12-08T14:39:55.449Z,6.55
2022-12-08T14:42:30.922Z,6.92
2022-12-08T14:45:15.790Z,7.14
2022-12-08T14:47:48.775Z,7.63
2022-12-08T14:50:57.254Z,8.49
2022-12-08T14:53:38.266Z,8.34
2022-12-08T14:56:26.524Z,7.21
2022-12-08T14:59:17.563Z,6.22
2022-12-08T15:01:55.830Z,5.48
2022-12-08T15:04:33.335Z,5.08
2022-12-08T15:07:13.787Z,5.91
2022-12-08T15:09:50.476Z,6.84
2022-12-08T15:12:32.153Z,7.71
2022-12-08T15:15:19.379Z,7.48
2022-12-08T15:18:03.017Z,6.38
2022-12-08T15:20:48.648Z,5.52
2022-12-08T15:23:39.870Z,4.89
2022-12-08T15:26:22.937Z,4.72
2022-12-08T15:28:57.907Z,5.66
2022-12-08T15:31:32.261Z,6.47
2022-12-08T15:34:05.855Z,6.82
2022-12-08T15:36:42.143Z,6.98
2022-12-08T15:39:34.542Z,7.19
2022-12-08T15:42:16.697Z,7.56
2022-12-08T15:44:50.252Z,6.75
2022-12-08T15:47:26.545Z,5.88
2022-12-08T15:50:00.558Z,5.22
2022-12-08T15:52:35.800Z,5.10
2022-12-08T15:55:16.101Z,6.36
2022-12-08T16:00:52.847Z,7.89
2022-12-08T16:07:26.868Z,6.49
2022-12-08T16:09:36.478Z,5.59
2022-12-08T16:13:26.914Z,5.25
2022-12-08T16:15:51.572Z,6.49
2022-12-08T16:18:33.337Z,7.48
2022-12-08T16:21:22.698Z,8.15
2022-12-08T16:24:09.089Z,7.52
2022-12-08T16:27:58.210Z,6.57
2022-12-08T16:29:37.784Z,5.80
2022-12-08T16:32:11.576Z,5.61
2022-12-08T16:34:46.389Z,6.68
2022-12-08T16:37:23.504Z,7.96
2022-12-08T16:40:00.131Z,8.92
2022-12-08T16:42:43.653Z,8.72
2022-12-08T16:45:21.157Z,7.65
2022-12-08T16:47:57.660Z,6.80
2022-12-08T16:50:36.239Z,6.20
2022-12-08T16:53:12.929Z,5.75
2022-12-08T16:55:51.770Z,5.47
2022-12-08T16:58:25.644Z,6.37
2022-12-08T17:00:59.291Z,7.62
2022-12-08T17:03:34.732Z,8.11
2022-12-08T17:06:16.022Z,8.22
2022-12-08T17:08:49.978Z,7.50
2022-12-08T17:11:30.453Z,6.69
2022-12-08T17:14:03.820Z,6.08
2022-12-08T17:16:37.470Z,5.66
2022-12-08T17:19:14.328Z,6.06
2022-12-08T17:21:50.073Z,6.41
2022-12-08T17:24:26.314Z,6.43
2022-12-08T17:27:04.483Z,6.54
2022-12-08T17:29:40.142Z,7.56
2022-12-08T17:32:13.287Z,8.52
2022-12-08T17:34:46.873Z,9.05
2022-12-08T17:37:21.492Z,8.18
2022-12-08T17:39:55.392Z,7.19
2022-12-08T17:42:28.994Z,6.43
2022-12-08T17:45:02.636Z,5.89
2022-12-08T17:47:36.414Z,5.85
2022-12-08T17:50:12.230Z,7.66
2022-12-08T17:52:45.690Z,9.13
2022-12-08T17:55:19.442Z,9.82
2022-12-08T17:57:53.850Z,9.57
2022-12-08T18:00:27.757Z,8.43
2022-12-08T18:03:02.164Z,7.49
2022-12-08T18:05:36.052Z,6.80
2022-12-08T18:08:09.352Z,6.26
2022-12-08T18:10:42.976Z,5.93
2022-12-08T18:13:16.683Z,6.68
2022-12-08T18:15:52.556Z,8.51
2022-12-08T18:18:26.187Z,9.71
2022-12-08T18:21:00.553Z,9.98
2022-12-08T18:23:35.699Z,9.01
2022-12-08T18:26:13.912Z,7.96
2022-12-08T18:28:47.432Z,7.19
2022-12-08T18:31:23.471Z,6.64
2022-12-08T18:33:57.698Z,6.21
2022-12-08T18:36:31.777Z,5.95
2022-12-08T18:39:10.410Z,6.98
2022-12-08T18:41:43.906Z,8.51
2022-12-08T18:44:18.278Z,9.67
2022-12-08T18:46:53.110Z,9.35
2022-12-08T18:49:27.096Z,8.22
2022-12-08T18:52:00.668Z,7.31
2022-12-08T18:54:58.147Z,6.64
2022-12-08T18:57:29.538Z,6.07
2022-12-08T19:00:04.305Z,5.66
2022-12-08T19:02:38.583Z,6.07
2022-12-08T19:05:14.603Z,7.75
2022-12-08T19:07:48.111Z,8.97
2022-12-08T19:10:23.889Z,8.76
2022-12-08T19:13:00.702Z,7.56
2022-12-08T19:15:33.891Z,6.54
2022-12-08T19:18:07.145Z,5.79
2022-12-08T19:20:43.810Z,5.18
2022-12-08T19:23:18.264Z,4.66
2022-12-08T19:25:51.712Z,4.54
2022-12-08T19:28:25.384Z,6.11
2022-12-08T19:30:59.657Z,7.09
2022-12-08T19:33:33.305Z,7.32
2022-12-08T19:36:15.628Z,6.59
2022-12-08T19:39:06.881Z,5.57
2022-12-08T19:41:59.242Z,4.76
2022-12-08T19:44:52.008Z,4.14
2022-12-08T19:47:27.806Z,3.67
2022-12-08T19:50:15.296Z,3.83
2022-12-08T19:52:49.136Z,5.70
2022-12-08T19:55:23.884Z,7.13
2022-12-08T19:57:58.635Z,7.69
2022-12-08T20:00:32.651Z,6.97
2022-12-08T20:03:07.773Z,5.85
2022-12-08T20:05:43.879Z,4.98
2022-12-08T20:08:17.423Z,4.33
2022-12-08T20:10:51.140Z,3.82
2022-12-08T20:13:47.324Z,3.39
2022-12-08T20:16:21.127Z,3.68
2022-12-08T20:18:55.423Z,5.75
2022-12-08T20:21:29.300Z,7.09
2022-12-08T20:24:05.082Z,7.83
2022-12-08T20:26:39.577Z,8.15
